Accueil
METAR-TAF:

METAR-TAF

Aéroports :

Caracas, Venezuela

Aéroport international Maiquetía - Simón Bolívar

latitude: 10-36N, longitude: 066-59W, altitude: 43 m

Observation

Le bulletin a été fait il y a 18 minutes, à 16:00 UTC
Vent 6 kt de est/nord-est
Température 27°C
Humidité 70%
Pression 1015 hPa
Visibilité 10 km ou plus
Nuages épars à une hauteur de 1600 ft

METAR: SVMI 241600Z 07006KT 9999 SCT016 27/21 Q1015

Heure: 12:18 (16:18 UTC)

Prévision

Le bulletin a été fait il y a 6 heures et 18 minutes, à 10:00 UTC
Prévision valable du 24 à 12 UTC au 25 à 12 UTC
Vent 5 kt de nord-est
Visibilité 10 km ou plus
Nuages épars à une hauteur de 1300 ft
Evoluant progressivement
du 24 à 12 UTC au 24 à 16 UTC
Vent 8 kt de est
Quelques nuages à une hauteur de 1600 ft
Nuages épars à une hauteur de 7000 ft

TAF: SVMI 241000Z 2412/2512 05005KT 9999 SCT013 TX33/1800Z TN25/0900Z BECMG 2412/2416 09008KT FEW016 SCT070

Observations et prévisions météorologiques de plus de 4000 aéroports (messages METAR et TAF).

Les stations disponibles sont représentées par des disques jaunes et rouges sur la carte.

Passer la souris dessus pour voir le nom de la station.

Cliquer dessus pour voir les observations et prévisions météorologiques.

Pour changer de carte: cliquez sur les boutons verts avec une croix noire pour zoomer, sur le bouton vert avec un tiret pour effectuer un zoom arrière, ou sur les flèches vertes pour les cartes adjacentes.


METAR-TAF: